createdAt,value
2023-01-03T00:00:24.208Z,14.88
2023-01-03T00:02:51.167Z,12.50
2023-01-03T00:05:18.446Z,13.57
2023-01-03T00:07:45.318Z,11.68
2023-01-03T00:10:12.116Z,11.70
2023-01-03T00:12:38.985Z,10.80
2023-01-03T00:15:06.267Z,11.52
2023-01-03T00:17:33.499Z,11.85
2023-01-03T00:20:00.560Z,9.82
2023-01-03T00:22:32.038Z,10.07
2023-01-03T00:24:59.008Z,10.57
2023-01-03T00:27:27.075Z,14.13
2023-01-03T00:29:54.438Z,16.67
2023-01-03T00:32:21.364Z,16.58
2023-01-03T00:34:48.208Z,19.77
2023-01-03T00:37:15.889Z,17.85
2023-01-03T00:39:43.840Z,18.75
2023-01-03T00:42:11.034Z,19.80
2023-01-03T00:44:38.188Z,22.10
2023-01-03T00:47:05.211Z,23.02
2023-01-03T00:49:32.475Z,17.13
2023-01-03T00:51:59.339Z,25.27
2023-01-03T00:54:26.738Z,24.17
2023-01-03T00:56:53.954Z,27.92
2023-01-03T00:59:21.911Z,27.38
2023-01-03T01:01:52.966Z,25.73
2023-01-03T01:04:31.239Z,24.83
2023-01-03T01:07:03.916Z,23.50
2023-01-03T01:09:33.327Z,25.35
2023-01-03T01:12:00.295Z,23.23
2023-01-03T01:14:29.280Z,23.00
2023-01-03T01:16:59.477Z,22.40
2023-01-03T01:19:32.451Z,17.25
2023-01-03T01:22:00.477Z,14.93
2023-01-03T01:24:27.497Z,12.43
2023-01-03T01:26:56.149Z,15.25
2023-01-03T01:29:23.183Z,17.58
2023-01-03T01:31:50.407Z,15.73
2023-01-03T01:34:18.013Z,15.90
2023-01-03T01:36:46.172Z,13.85
2023-01-03T01:39:14.655Z,14.25
2023-01-03T01:42:00.716Z,15.48
2023-01-03T01:45:02.318Z,18.65
2023-01-03T01:47:55.385Z,18.58
2023-01-03T01:50:28.177Z,18.65
2023-01-03T01:53:03.356Z,19.38
2023-01-03T01:55:41.069Z,18.02
2023-01-03T01:58:09.500Z,15.48
2023-01-03T02:00:37.610Z,16.77
2023-01-03T02:03:05.059Z,17.00
2023-01-03T02:05:35.063Z,18.50
2023-01-03T02:08:03.529Z,20.58
2023-01-03T02:11:02.750Z,18.60
2023-01-03T02:14:07.787Z,17.33
2023-01-03T02:16:56.395Z,18.52
2023-01-03T02:20:00.908Z,19.30
2023-01-03T02:23:05.221Z,19.20
2023-01-03T02:25:44.355Z,23.67
2023-01-03T02:28:23.179Z,17.63
2023-01-03T02:31:03.565Z,19.60
2023-01-03T02:33:41.603Z,18.23
2023-01-03T02:36:38.514Z,19.98
2023-01-03T02:39:40.980Z,10.55
2023-01-03T02:42:36.636Z,8.32
2023-01-03T02:45:06.406Z,9.48
2023-01-03T02:47:45.862Z,11.57
2023-01-03T02:50:15.536Z,9.85
2023-01-03T02:52:45.728Z,8.57
2023-01-03T02:55:39.987Z,10.25
2023-01-03T02:58:11.422Z,7.55
2023-01-03T03:00:48.591Z,9.23
2023-01-03T03:03:19.712Z,6.38
2023-01-03T03:05:52.988Z,7.18
2023-01-03T03:08:20.212Z,7.97
2023-01-03T03:11:06.297Z,8.57
2023-01-03T03:13:50.312Z,11.70
2023-01-03T03:16:48.201Z,12.80
2023-01-03T03:19:50.813Z,12.57
2023-01-03T03:22:48.889Z,12.50
2023-01-03T03:25:29.922Z,13.20
2023-01-03T03:28:21.956Z,11.98
2023-01-03T03:31:00.740Z,13.85
2023-01-03T03:33:31.263Z,11.38
2023-01-03T03:36:37.579Z,12.48
2023-01-03T03:39:06.241Z,12.02
2023-01-03T03:41:58.806Z,13.30
2023-01-03T03:44:54.570Z,12.90
2023-01-03T03:47:40.557Z,13.55
2023-01-03T03:50:22.520Z,15.45
2023-01-03T03:52:53.010Z,12.40
2023-01-03T03:55:30.481Z,13.23
2023-01-03T03:58:07.754Z,11.18
2023-01-03T04:00:38.533Z,13.27
2023-01-03T04:03:09.286Z,11.55
2023-01-03T04:05:49.293Z,9.35
2023-01-03T04:08:16.435Z,6.60
2023-01-03T04:10:44.208Z,9.93
2023-01-03T04:13:11.170Z,14.50
2023-01-03T04:15:38.012Z,12.25
2023-01-03T04:18:04.879Z,12.77
2023-01-03T04:20:31.690Z,13.50
2023-01-03T04:22:58.619Z,12.40
2023-01-03T04:25:25.875Z,13.57
2023-01-03T04:27:52.644Z,12.25
2023-01-03T04:30:20.059Z,12.38
2023-01-03T04:32:46.870Z,11.82
2023-01-03T04:35:13.645Z,15.60
2023-01-03T04:37:40.451Z,13.35
2023-01-03T04:40:07.693Z,13.52
2023-01-03T04:42:53.429Z,14.02
2023-01-03T04:45:20.249Z,14.10
2023-01-03T04:47:47.205Z,14.82
2023-01-03T04:50:14.244Z,13.52
2023-01-03T04:52:41.073Z,13.68
2023-01-03T04:55:08.301Z,9.07
2023-01-03T04:57:36.382Z,9.15
2023-01-03T05:00:04.813Z,8.68
2023-01-03T05:02:31.633Z,7.45
2023-01-03T05:04:58.977Z,8.60
2023-01-03T05:07:28.535Z,10.18
2023-01-03T05:09:55.347Z,11.05
2023-01-03T05:12:22.367Z,12.30
2023-01-03T05:14:49.150Z,9.90
2023-01-03T05:17:18.981Z,8.18
2023-01-03T05:20:05.659Z,5.65
2023-01-03T05:22:51.506Z,5.15
2023-01-03T05:25:37.556Z,6.38
2023-01-03T05:28:04.824Z,5.63
2023-01-03T05:30:31.689Z,6.57
2023-01-03T05:32:58.535Z,4.75
2023-01-03T05:35:25.810Z,4.93
2023-01-03T05:37:55.681Z,4.60
2023-01-03T05:40:22.451Z,3.88
2023-01-03T05:42:49.538Z,5.32
2023-01-03T05:45:16.509Z,5.63
2023-01-03T05:47:43.501Z,7.85
2023-01-03T05:50:10.745Z,6.00
2023-01-03T05:52:38.050Z,4.32
2023-01-03T05:55:05.727Z,5.18
2023-01-03T05:57:35.674Z,5.63
2023-01-03T06:00:04.718Z,4.60
2023-01-03T06:02:31.550Z,4.43
2023-01-03T06:04:58.354Z,4.72
2023-01-03T06:07:25.274Z,4.65
2023-01-03T06:09:52.095Z,6.30
2023-01-03T06:12:18.923Z,13.25
2023-01-03T06:14:45.715Z,7.38
2023-01-03T06:17:30.908Z,8.60
2023-01-03T06:19:57.732Z,13.52
2023-01-03T06:22:24.538Z,14.10
2023-01-03T06:24:51.744Z,13.90
2023-01-03T06:27:18.598Z,19.42
2023-01-03T06:29:45.402Z,25.67
2023-01-03T06:32:12.170Z,22.10
2023-01-03T06:34:39.411Z,17.52
2023-01-03T06:37:06.566Z,17.83
2023-01-03T06:39:33.590Z,18.13
2023-01-03T06:42:20.723Z,18.80
2023-01-03T06:45:07.554Z,20.58
2023-01-03T06:48:00.416Z,21.27
2023-01-03T06:50:46.203Z,19.00
2023-01-03T06:53:15.952Z,20.25
2023-01-03T06:55:44.452Z,25.83
2023-01-03T06:58:13.292Z,20.73
2023-01-03T07:00:42.939Z,23.60
2023-01-03T07:03:11.602Z,23.45
2023-01-03T07:05:38.993Z,19.67
2023-01-03T07:08:05.912Z,23.92
2023-01-03T07:10:33.624Z,15.75
2023-01-03T07:13:20.278Z,15.57
2023-01-03T07:15:47.319Z,24.10
2023-01-03T07:18:14.714Z,17.05
2023-01-03T07:20:45.326Z,17.88
2023-01-03T07:23:13.748Z,14.95
2023-01-03T07:25:41.981Z,13.20
2023-01-03T07:28:11.498Z,12.98
2023-01-03T07:30:40.887Z,12.18
2023-01-03T07:33:10.044Z,13.13
2023-01-03T07:35:37.468Z,11.13
2023-01-03T07:38:05.321Z,8.52
2023-01-03T07:40:32.992Z,11.50
2023-01-03T07:43:18.819Z,7.22
2023-01-03T07:45:47.071Z,6.55
2023-01-03T07:48:15.184Z,5.28
2023-01-03T07:50:42.487Z,4.15
2023-01-03T07:53:09.800Z,3.90
2023-01-03T07:55:37.880Z,5.45
2023-01-03T07:58:04.895Z,18.35
2023-01-03T08:00:32.204Z,19.25
2023-01-03T08:02:59.585Z,15.90
2023-01-03T08:05:26.592Z,15.40
2023-01-03T08:07:56.023Z,11.10
2023-01-03T08:10:42.143Z,13.77
2023-01-03T08:13:18.942Z,13.73
2023-01-03T08:15:57.775Z,17.27
2023-01-03T08:18:29.193Z,9.60
2023-01-03T08:20:57.335Z,6.15
2023-01-03T08:23:25.128Z,14.77
2023-01-03T08:25:52.780Z,7.22
2023-01-03T08:28:19.976Z,6.60
2023-01-03T08:30:49.578Z,12.02
2023-01-03T08:38:41.763Z,6.05
2023-01-03T08:41:10.519Z,7.05
2023-01-03T08:43:41.304Z,5.38
2023-01-03T08:46:11.573Z,8.57
2023-01-03T08:54:11.769Z,9.57
2023-01-03T08:56:40.191Z,9.38
2023-01-03T09:02:00.683Z,13.38
2023-01-03T09:07:44.940Z,13.73
2023-01-03T09:10:11.996Z,10.48
2023-01-03T09:18:00.209Z,10.25
2023-01-03T09:20:59.188Z,8.85
2023-01-03T09:26:15.377Z,7.47
2023-01-03T09:32:16.214Z,4.30
2023-01-03T09:44:12.036Z,3.05
2023-01-03T09:46:40.081Z,3.38
2023-01-03T09:49:08.084Z,4.07
2023-01-03T09:54:46.518Z,3.20
2023-01-03T09:57:39.480Z,3.40
2023-01-03T10:00:47.114Z,3.28
2023-01-03T10:03:51.597Z,3.08
2023-01-03T10:12:08.869Z,3.05
2023-01-03T10:15:25.331Z,3.10
2023-01-03T10:23:24.067Z,2.78
2023-01-03T10:25:52.482Z,2.47
2023-01-03T10:28:24.282Z,2.95
2023-01-03T10:31:18.519Z,2.88
2023-01-03T10:33:48.054Z,2.60
2023-01-03T10:36:17.391Z,2.33
2023-01-03T10:38:52.007Z,2.08
2023-01-03T10:41:41.592Z,2.10
2023-01-03T10:44:27.888Z,2.15
2023-01-03T10:47:01.544Z,2.50
2023-01-03T10:49:31.812Z,2.40
2023-01-03T10:52:37.353Z,2.47
2023-01-03T10:55:13.277Z,1.95
2023-01-03T10:57:49.020Z,1.60
2023-01-03T11:00:33.367Z,2.10
2023-01-03T11:03:12.495Z,2.15
2023-01-03T11:05:42.091Z,2.03
2023-01-03T11:08:35.583Z,2.20
2023-01-03T11:11:03.586Z,1.70
2023-01-03T11:13:41.914Z,2.65
2023-01-03T11:16:19.788Z,3.00
2023-01-03T11:19:03.099Z,2.17
2023-01-03T11:21:45.980Z,2.25
2023-01-03T11:24:33.583Z,2.83
2023-01-03T11:27:18.968Z,2.03
2023-01-03T11:30:27.423Z,2.42
2023-01-03T11:33:29.106Z,2.08
2023-01-03T11:35:56.880Z,1.65
2023-01-03T11:38:52.640Z,1.40
2023-01-03T11:41:42.280Z,1.85
2023-01-03T11:44:28.549Z,2.30
2023-01-03T11:47:14.759Z,2.60
2023-01-03T11:50:19.821Z,4.30
2023-01-03T11:53:18.044Z,1.92
2023-01-03T11:56:18.918Z,1.50
2023-01-03T11:59:26.380Z,2.65
2023-01-03T12:02:16.887Z,2.30
2023-01-03T12:04:56.277Z,1.85
2023-01-03T12:07:48.035Z,2.22
2023-01-03T12:10:24.777Z,2.10
2023-01-03T12:13:00.400Z,1.90
2023-01-03T12:15:40.402Z,2.50
2023-01-03T12:18:16.839Z,1.55
2023-01-03T12:20:56.056Z,1.17
2023-01-03T12:23:48.927Z,2.50
2023-01-03T12:26:17.359Z,1.00
2023-01-03T12:29:01.226Z,1.00
2023-01-03T12:31:34.247Z,1.10
2023-01-03T12:34:37.745Z,5.43
2023-01-03T12:37:18.666Z,2.40
2023-01-03T12:39:49.293Z,3.50
2023-01-03T12:42:39.962Z,3.05
2023-01-03T12:45:18.744Z,3.90
2023-01-03T12:48:01.104Z,2.15
2023-01-03T12:50:34.830Z,1.85
2023-01-03T12:53:14.424Z,1.60
2023-01-03T12:55:45.773Z,1.67
2023-01-03T12:58:39.248Z,2.45
2023-01-03T13:01:15.779Z,2.72
2023-01-03T13:03:50.170Z,3.85
2023-01-03T13:06:22.380Z,4.65
2023-01-03T13:08:55.372Z,3.28
2023-01-03T13:11:35.739Z,2.67
2023-01-03T13:14:22.297Z,3.35
2023-01-03T13:16:51.423Z,3.53
2023-01-03T13:19:23.875Z,4.38
2023-01-03T13:22:01.451Z,3.95
2023-01-03T13:24:51.281Z,3.65
2023-01-03T13:27:18.599Z,4.15
2023-01-03T13:29:57.424Z,3.28
2023-01-03T13:32:26.172Z,3.28
2023-01-03T13:34:59.187Z,3.97
2023-01-03T13:37:46.129Z,4.68
2023-01-03T13:43:19.020Z,4.22
2023-01-03T13:45:45.799Z,4.60
2023-01-03T13:48:21.961Z,4.72
2023-01-03T13:51:05.975Z,4.25
2023-01-03T13:53:39.546Z,5.07
2023-01-03T13:56:28.359Z,5.53
2023-01-03T13:59:02.300Z,5.13
2023-01-03T14:02:03.841Z,4.57
2023-01-03T14:04:45.748Z,5.05
2023-01-03T14:07:51.313Z,5.65
2023-01-03T14:10:33.347Z,5.78
2023-01-03T14:13:39.228Z,6.07
2023-01-03T14:16:24.471Z,5.43
2023-01-03T14:19:02.258Z,6.03
2023-01-03T14:21:46.552Z,5.22
2023-01-03T14:24:24.406Z,6.13
2023-01-03T14:26:52.235Z,5.78
2023-01-03T14:29:25.844Z,5.50
2023-01-03T14:31:55.980Z,6.13
2023-01-03T14:34:35.713Z,5.28
2023-01-03T14:37:06.003Z,7.97
2023-01-03T14:42:04.958Z,9.38
2023-01-03T14:44:34.127Z,9.13
2023-01-03T14:47:05.179Z,7.82
2023-01-03T14:49:48.442Z,8.88
2023-01-03T14:52:28.847Z,9.68
2023-01-03T14:55:03.747Z,8.32
2023-01-03T14:57:31.557Z,9.95
2023-01-03T15:00:00.523Z,11.98
2023-01-03T15:02:38.670Z,19.75
2023-01-03T15:05:26.678Z,33.45
2023-01-03T15:07:53.968Z,24.23
2023-01-03T15:10:36.688Z,29.75
2023-01-03T15:13:05.156Z,33.15
2023-01-03T15:15:39.092Z,32.47
2023-01-03T15:18:09.779Z,36.88
2023-01-03T15:20:43.727Z,47.20
2023-01-03T15:23:41.155Z,34.38
2023-01-03T15:26:18.831Z,37.97
2023-01-03T15:28:56.414Z,35.03
2023-01-03T15:31:34.570Z,42.08
2023-01-03T15:34:12.986Z,49.60
2023-01-03T15:36:40.991Z,42.05
2023-01-03T15:39:20.610Z,32.00
2023-01-03T15:44:55.019Z,42.80
2023-01-03T15:47:26.443Z,48.55
2023-01-03T15:49:57.584Z,53.30
2023-01-03T15:52:25.319Z,74.10
2023-01-03T15:54:52.330Z,45.10
2023-01-03T15:57:32.617Z,43.45
2023-01-03T16:00:04.180Z,43.60
2023-01-03T16:02:32.055Z,40.55
2023-01-03T16:04:59.075Z,37.65
2023-01-03T16:07:30.719Z,37.22
2023-01-03T16:09:58.191Z,33.15
2023-01-03T16:12:36.124Z,37.22
2023-01-03T16:15:06.285Z,34.67
2023-01-03T16:17:36.946Z,37.28
2023-01-03T16:20:04.218Z,37.03
2023-01-03T16:22:35.980Z,40.55
2023-01-03T16:25:05.488Z,36.35
2023-01-03T16:27:35.660Z,37.60
2023-01-03T16:30:02.866Z,37.97
2023-01-03T16:32:30.894Z,34.50
2023-01-03T16:35:04.973Z,40.28
2023-01-03T16:37:32.064Z,42.28
2023-01-03T16:39:59.147Z,35.72
2023-01-03T16:42:29.373Z,30.60
2023-01-03T16:44:57.206Z,30.77
2023-01-03T16:47:32.361Z,33.97
2023-01-03T16:50:19.865Z,54.63
2023-01-03T16:52:56.148Z,40.55
2023-01-03T16:55:35.537Z,49.40
2023-01-03T16:58:03.875Z,40.67
2023-01-03T17:00:43.298Z,43.45
2023-01-03T17:03:16.272Z,41.55
2023-01-03T17:05:47.039Z,72.50
2023-01-03T17:08:43.132Z,69.88
2023-01-03T17:11:23.016Z,85.45
2023-01-03T17:14:23.408Z,61.80
2023-01-03T17:16:53.873Z,38.83
2023-01-03T17:22:20.766Z,40.45
2023-01-03T17:24:50.134Z,44.75
2023-01-03T17:27:29.349Z,44.92
2023-01-03T17:30:06.977Z,50.60
2023-01-03T17:32:34.524Z,42.85
2023-01-03T17:35:03.742Z,46.90
2023-01-03T17:37:45.393Z,41.65
2023-01-03T17:40:32.897Z,42.88
2023-01-03T17:43:00.806Z,40.53
2023-01-03T17:45:46.665Z,41.72
2023-01-03T17:48:32.493Z,36.97
2023-01-03T17:51:01.647Z,34.95
2023-01-03T17:53:29.541Z,38.88
2023-01-03T17:55:56.541Z,50.20
2023-01-03T17:58:36.187Z,54.53
2023-01-03T18:01:05.802Z,36.65
2023-01-03T18:03:32.995Z,45.58
2023-01-03T18:06:05.393Z,49.90
2023-01-03T18:08:32.859Z,48.13
2023-01-03T18:10:59.965Z,45.03
2023-01-03T18:13:32.243Z,40.85
2023-01-03T18:15:59.821Z,41.92
2023-01-03T18:18:28.466Z,37.97
2023-01-03T18:20:56.579Z,39.15
2023-01-03T18:23:36.239Z,41.25
2023-01-03T18:26:07.361Z,41.92
2023-01-03T18:28:34.417Z,50.28
2023-01-03T18:31:01.815Z,47.58
2023-01-03T18:33:28.721Z,40.40
2023-01-03T18:35:56.046Z,35.20
2023-01-03T18:38:26.061Z,36.13
2023-01-03T18:40:57.441Z,40.03
2023-01-03T18:43:29.623Z,35.92
2023-01-03T18:45:56.535Z,31.83
2023-01-03T18:48:23.456Z,37.50
2023-01-03T18:50:58.344Z,41.38
2023-01-03T18:53:29.248Z,43.05
2023-01-03T18:55:56.476Z,48.00
2023-01-03T18:58:37.034Z,43.13
2023-01-03T19:01:05.854Z,46.38
2023-01-03T19:03:34.874Z,37.65
2023-01-03T19:06:02.959Z,31.23
2023-01-03T19:08:35.461Z,34.33
2023-01-03T19:11:13.805Z,56.65
2023-01-03T19:13:50.573Z,86.65
2023-01-03T19:16:29.458Z,59.22
2023-01-03T19:18:56.884Z,71.05
2023-01-03T19:21:26.270Z,76.38
2023-01-03T19:24:17.179Z,70.63
2023-01-03T19:26:54.877Z,76.68
2023-01-03T19:29:24.868Z,65.80
2023-01-03T19:31:56.366Z,53.45
2023-01-03T19:34:26.175Z,50.63
2023-01-03T19:36:53.637Z,50.08
2023-01-03T19:39:25.882Z,46.53
2023-01-03T19:42:17.000Z,48.75
2023-01-03T19:44:44.612Z,43.08
2023-01-03T19:47:20.592Z,48.42
2023-01-03T19:49:50.634Z,60.90
2023-01-03T19:52:18.007Z,61.95
2023-01-03T19:54:45.252Z,52.55
2023-01-03T19:57:27.924Z,60.50
2023-01-03T19:59:58.610Z,69.15
2023-01-03T20:02:39.804Z,63.22
2023-01-03T20:05:34.933Z,63.35
2023-01-03T20:08:12.429Z,76.55
2023-01-03T20:10:41.551Z,59.83
2023-01-03T20:13:31.251Z,60.78
2023-01-03T20:16:04.213Z,81.53
2023-01-03T20:18:37.099Z,71.28
2023-01-03T20:21:22.505Z,57.13
2023-01-03T20:24:01.815Z,96.18
2023-01-03T20:26:31.474Z,92.57
2023-01-03T20:28:59.221Z,84.72
2023-01-03T20:31:27.110Z,82.93
2023-01-03T20:33:54.059Z,61.10
2023-01-03T20:36:32.897Z,74.05
2023-01-03T20:39:21.328Z,56.10
2023-01-03T20:41:48.599Z,63.55
2023-01-03T20:44:15.360Z,73.18
2023-01-03T20:46:42.864Z,74.18
2023-01-03T20:49:24.678Z,75.88
2023-01-03T20:51:52.562Z,71.35
2023-01-03T20:54:20.065Z,77.35
2023-01-03T20:56:47.404Z,79.63
2023-01-03T20:59:19.379Z,71.50
2023-01-03T21:01:50.459Z,65.15
2023-01-03T21:04:17.856Z,75.60
2023-01-03T21:06:45.525Z,69.55
2023-01-03T21:09:14.139Z,71.65
2023-01-03T21:11:41.119Z,84.20
2023-01-03T21:14:08.801Z,82.97
2023-01-03T21:16:48.572Z,75.30
2023-01-03T21:19:19.043Z,67.18
2023-01-03T21:21:49.237Z,66.00
2023-01-03T21:24:18.209Z,60.42
2023-01-03T21:26:45.115Z,66.43
2023-01-03T21:29:12.356Z,56.55
2023-01-03T21:31:42.219Z,59.88
2023-01-03T21:34:19.279Z,60.25
2023-01-03T21:36:46.532Z,63.83
2023-01-03T21:39:16.747Z,61.78
2023-01-03T21:42:02.520Z,64.13
2023-01-03T21:44:29.825Z,67.22
2023-01-03T21:46:56.671Z,55.55
2023-01-03T21:49:23.922Z,56.38
2023-01-03T21:51:50.830Z,57.53
2023-01-03T21:54:18.357Z,55.00
2023-01-03T21:56:46.275Z,55.63
2023-01-03T21:59:18.028Z,50.78
2023-01-03T22:02:06.691Z,57.95
2023-01-03T22:04:35.033Z,62.90
2023-01-03T22:07:02.538Z,65.78
2023-01-03T22:09:49.424Z,57.30
2023-01-03T22:12:17.672Z,63.13
2023-01-03T22:14:48.991Z,58.33
2023-01-03T22:17:18.924Z,63.17
2023-01-03T22:19:45.761Z,71.80
2023-01-03T22:22:13.087Z,76.20
2023-01-03T22:24:40.191Z,72.75
2023-01-03T22:27:07.374Z,80.03
2023-01-03T22:29:34.416Z,61.63
2023-01-03T22:32:02.097Z,60.90
2023-01-03T22:34:29.623Z,61.97
2023-01-03T22:36:56.875Z,56.58
2023-01-03T22:39:23.844Z,60.17
2023-01-03T22:41:53.132Z,59.63
2023-01-03T22:44:19.933Z,62.15
2023-01-03T22:46:46.735Z,60.78
2023-01-03T22:49:16.995Z,51.15
2023-01-03T22:51:44.306Z,54.13
2023-01-03T22:54:12.755Z,55.17
2023-01-03T22:56:39.662Z,54.30
2023-01-03T22:59:06.556Z,54.55
2023-01-03T23:01:34.232Z,58.90
2023-01-03T23:04:01.373Z,60.00
2023-01-03T23:06:29.958Z,64.13
2023-01-03T23:08:57.620Z,63.63
2023-01-03T23:11:44.847Z,63.33
2023-01-03T23:14:20.263Z,61.72
2023-01-03T23:16:48.538Z,53.85
2023-01-03T23:19:17.794Z,64.55
2023-01-03T23:21:47.258Z,64.20
2023-01-03T23:24:16.978Z,66.25
2023-01-03T23:26:44.229Z,56.47
2023-01-03T23:29:11.928Z,58.10
2023-01-03T23:31:39.382Z,55.25
2023-01-03T23:34:06.635Z,62.90
2023-01-03T23:36:33.548Z,57.13
2023-01-03T23:39:00.666Z,58.88
2023-01-03T23:41:27.443Z,53.53
2023-01-03T23:43:54.823Z,52.35
2023-01-03T23:46:23.938Z,48.08
2023-01-03T23:48:58.024Z,47.00
2023-01-03T23:51:25.701Z,43.20
2023-01-03T23:53:53.812Z,41.67
2023-01-03T23:56:23.827Z,42.20
2023-01-03T23:58:51.752Z,46.60
